Antonios — SY8410 — position and weather

sailwx.info

Track history (hours):
 
Tides and Currents Weather Stations Pressure Air Temp Water Temp Dewpoint Dewpoint Depression Visibility Wind Speed Wind Dir Waves Ship Positions

Antonios

Last reported at 2015-Sep-02 17:33 UTC. Time now 2015-Sep-03 17:16 UTC.
Position N 36°55' E 026°59'.

Length 57 m; draft 4.1 m.

Type: Tanker. MMSI: 239191300.

Date/timePositionNaut miles runAvg speedWind from/ knotsBaromVisibWave heightAir tempDewpointWater temp
2015-Sep-02 17:33N 36°55' E 026°59'1010.2
2015-Sep-02 16:34N 36°52' E 026°47'1110.3
2015-Sep-02 15:28N 36°49' E 026°33'1410.1
2015-Sep-02 14:05N 36°45' E 026°17'710.2
2015-Sep-02 13:23N 36°42' E 026°08'910.3
2015-Sep-02 12:28N 36°39' E 025°57'910.5
2015-Sep-02 11:33N 36°36' E 025°46'1110.6
2015-Sep-02 10:33N 36°33' E 025°33'1010.2
2015-Sep-02 09:33N 36°29' E 025°22'7 6.4
2015-Sep-02 08:32N 36°23' E 025°26'0 0.0
2015-Sep-02 07:33N 36°23' E 025°26'0 0.0
2015-Sep-02 06:33N 36°23' E 025°26'0 0.0
2015-Sep-02 05:32N 36°23' E 025°26'0 0.0
2015-Sep-02 04:33N 36°23' E 025°26'0 0.0
2015-Sep-02 03:32N 36°23' E 025°26'0 0.0
2015-Sep-02 02:33N 36°23' E 025°26'0 0.0
2015-Sep-02 01:32N 36°23' E 025°26'0 0.0
2015-Sep-02 00:33N 36°23' E 025°26'0 0.0
2015-Sep-01 23:33N 36°23' E 025°26'0 0.0
2015-Sep-01 22:32N 36°23' E 025°26'0 0.0
2015-Sep-01 21:32N 36°23' E 025°26'0 0.0
2015-Sep-01 20:32N 36°23' E 025°26'0 0.0
2015-Sep-01 19:33N 36°23' E 025°26'0 0.0
2015-Sep-01 18:33N 36°23' E 025°26'0 0.0
2015-Sep-01 17:33N 36°23' E 025°26'0 0.0
2015-Sep-01 16:33N 36°23' E 025°26'0 0.0
2015-Sep-01 15:33N 36°23' E 025°26'0 0.0
2015-Sep-01 14:33N 36°23' E 025°26'0 0.0
2015-Sep-01 13:33N 36°23' E 025°26'0 0.0
2015-Sep-01 12:33N 36°23' E 025°26'0 0.0
2015-Sep-01 11:32N 36°23' E 025°26'0 0.0
2015-Sep-01 10:32N 36°23' E 025°26'5 4.7
2015-Sep-01 09:33N 36°23' E 025°20'10 9.7
2015-Sep-01 08:33N 36°28' E 025°11'10 9.8
2015-Sep-01 07:33N 36°35' E 025°01'78 9.7
2015-Aug-31 23:33N 37°31' E 023°54'10 9.9
2015-Aug-31 22:33N 37°38' E 023°45'10 9.7
2015-Aug-31 21:33N 37°46' E 023°39'9 9.3
2015-Aug-31 20:33N 37°50' E 023°28'10 9.7
2015-Aug-31 19:33N 37°53' E 023°16'9 1.0
2015-Aug-31 11:08N 37°55' E 023°05'1 0.8
2015-Aug-31 09:26N 37°55' E 023°04'0 0.0
2015-Aug-31 08:22N 37°54' E 023°04'0 0.1
2015-Aug-31 07:30N 37°54' E 023°04'0 0.0
2015-Aug-31 06:30N 37°54' E 023°04'0 0.0
2015-Aug-31 05:33N 37°54' E 023°04'0 0.0
2015-Aug-31 04:32N 37°54' E 023°04'0 0.0
2015-Aug-31 03:33N 37°54' E 023°04'0 0.0
2015-Aug-31 02:27N 37°54' E 023°04'0 0.0
2015-Aug-31 01:32N 37°55' E 023°04'0 0.0
2015-Aug-31 00:33N 37°54' E 023°04'0 0.0
2015-Aug-30 23:33N 37°54' E 023°04'0 0.0
2015-Aug-30 22:31N 37°54' E 023°04'0 0.0
2015-Aug-30 21:33N 37°54' E 023°04'0 0.0
2015-Aug-30 20:32N 37°54' E 023°04'0 0.0
2015-Aug-30 19:22N 37°54' E 023°04'0 0.0
2015-Aug-30 18:27N 37°55' E 023°04'0 0.0
2015-Aug-30 17:16N 37°54' E 023°04'0 0.1
2015-Aug-30 16:26N 37°54' E 023°04'0 0.0
2015-Aug-30 15:23N 37°54' E 023°04'0 0.0
2015-Aug-30 14:32N 37°54' E 023°04'0 0.0
2015-Aug-30 13:33N 37°54' E 023°04'0 0.1
2015-Aug-30 12:15N 37°55' E 023°04'0 0.0
2015-Aug-30 09:32N 37°54' E 023°04'0 0.0
2015-Aug-30 08:23N 37°55' E 023°04'0 0.0
2015-Aug-30 07:31N 37°55' E 023°04'0 0.0
2015-Aug-30 06:27N 37°54' E 023°04'0 0.0
2015-Aug-30 05:11N 37°55' E 023°04'0 0.0
2015-Aug-30 03:30N 37°55' E 023°04'0 0.1
2015-Aug-30 02:23N 37°55' E 023°04'8 9.9
2015-Aug-30 01:33N 37°53' E 023°14'1010.2
2015-Aug-30 00:33N 37°51' E 023°27'10 9.8
2015-Aug-29 23:33N 37°50' E 023°39'10 9.6
2015-Aug-29 22:33N 37°41' E 023°45'10 9.6
2015-Aug-29 21:32N 37°33' E 023°53'78 8.6
2015-Aug-29 12:27N 36°36' E 024°59'8 9.1
2015-Aug-29 11:33N 36°31' E 025°07'9 8.9
2015-Aug-29 10:32N 36°26' E 025°16'8 8.2
2015-Aug-29 09:31N 36°23' E 025°26'0 0.0
2015-Aug-29 08:33N 36°23' E 025°26'0 0.0
2015-Aug-29 07:32N 36°23' E 025°26'0 0.0
2015-Aug-29 06:32N 36°23' E 025°26'0 0.0
2015-Aug-29 05:33N 36°23' E 025°26'0 0.0
2015-Aug-29 04:32N 36°23' E 025°26'0 0.0
2015-Aug-29 03:33N 36°23' E 025°26'0 0.0
2015-Aug-29 02:32N 36°23' E 025°26'0 0.0
2015-Aug-29 01:32N 36°23' E 025°26'0 0.0
2015-Aug-29 00:33N 36°23' E 025°26'0 0.0
2015-Aug-28 23:33N 36°23' E 025°26'4 4.3
2015-Aug-28 22:33N 36°20' E 025°23'9 9.0
2015-Aug-28 21:33N 36°22' E 025°34'1010.0
2015-Aug-28 20:32N 36°28' E 025°43'9 9.4
2015-Aug-28 19:34N 36°33' E 025°53'10 9.6
2015-Aug-28 18:33N 36°38' E 026°03'9 9.0
2015-Aug-28 17:33N 36°42' E 026°14'8 7.7
2015-Aug-28 16:33N 36°45' E 026°22'8 7.4
2015-Aug-28 15:32N 36°47' E 026°31'8 8.1
2015-Aug-28 14:33N 36°50' E 026°40'9 8.8
2015-Aug-28 13:33N 36°53' E 026°51'7 0.3
2015-Aug-27 18:33N 36°55' E 026°59'10 9.6
2015-Aug-27 17:31N 36°53' E 026°47'9 9.5
2015-Aug-27 16:33N 36°51' E 026°35'10 9.6
2015-Aug-27 15:32N 36°48' E 026°23'9 8.8
2015-Aug-27 14:33N 36°45' E 026°13'9 8.5
2015-Aug-27 13:33N 36°42' E 026°04'9 8.7
2015-Aug-27 12:32N 36°39' E 025°53'8 8.6
2015-Aug-27 11:33N 36°36' E 025°43'9 8.8
2015-Aug-27 10:33N 36°33' E 025°33'10 9.4
2015-Aug-27 09:30N 36°29' E 025°22'7 7.1
2015-Aug-27 08:33N 36°23' E 025°26'0 0.0
2015-Aug-27 07:32N 36°23' E 025°26'0 0.0
2015-Aug-27 06:33N 36°23' E 025°26'0 0.0
2015-Aug-27 05:32N 36°23' E 025°26'0 0.0
2015-Aug-27 04:33N 36°23' E 025°26'0 0.0
2015-Aug-27 03:33N 36°23' E 025°26'0 0.0
2015-Aug-27 02:33N 36°23' E 025°26'7 6.9
2015-Aug-27 01:33N 36°23' E 025°17'42 2.6
2015-Aug-26 09:27N 37°02' E 024°58'8 8.9
2015-Aug-26 08:33N 37°07' E 025°06'3 3.1
2015-Aug-26 07:33N 37°05' E 025°09'0 0.0
2015-Aug-26 06:33N 37°05' E 025°09'0 0.0
2015-Aug-26 05:33N 37°05' E 025°09'0 0.1
2015-Aug-26 04:31N 37°05' E 025°09'0 0.5
2015-Aug-26 03:33N 37°05' E 025°08'0 0.0
2015-Aug-26 02:31N 37°05' E 025°08'0 0.0
2015-Aug-26 01:32N 37°05' E 025°08'0 0.0
2015-Aug-26 00:33N 37°05' E 025°08'0 0.0
2015-Aug-25 23:27N 37°05' E 025°08'0 0.0
2015-Aug-25 22:32N 37°05' E 025°08'4 4.1
2015-Aug-25 21:33N 37°08' E 025°05'8 8.1
2015-Aug-25 20:33N 37°13' E 024°56'9 8.7
2015-Aug-25 19:33N 37°18' E 024°47'52 8.7
2015-Aug-25 13:33N 37°39' E 023°47'9 9.0
2015-Aug-25 12:33N 37°45' E 023°39'9 8.7
2015-Aug-25 11:33N 37°50' E 023°30'10 9.4
2015-Aug-25 10:31N 37°52' E 023°18'10 1.6
2015-Aug-25 04:11N 37°55' E 023°05'0 0.0
2015-Aug-25 03:24N 37°55' E 023°05'0 0.0
2015-Aug-24 23:06N 37°55' E 023°05'1 1.1
2015-Aug-24 22:33N 37°55' E 023°05'0 0.2
2015-Aug-24 21:34N 37°55' E 023°04'0 0.0
2015-Aug-24 20:29N 37°55' E 023°04'0 0.0
2015-Aug-24 19:33N 37°55' E 023°04'0 0.0
2015-Aug-24 18:33N 37°55' E 023°04'0 0.0
2015-Aug-24 17:30N 37°55' E 023°04'0 0.0
2015-Aug-24 16:32N 37°55' E 023°04'0 0.0
2015-Aug-24 15:32N 37°55' E 023°04'0 0.0
2015-Aug-24 14:32N 37°55' E 023°04'5 5.0
2015-Aug-24 13:33N 37°52' E 023°09'1010.3
2015-Aug-24 12:33N 37°43' E 023°16'10 9.6
2015-Aug-24 11:33N 37°38' E 023°27'10 9.9
2015-Aug-24 10:33N 37°35' E 023°39'89 8.8
2015-Aug-24 00:27N 36°35' E 025°01'10 9.7
2015-Aug-23 23:27N 36°31' E 025°12'8 8.9
2015-Aug-23 22:33N 36°28' E 025°21'6 5.9
2015-Aug-23 21:33N 36°23' E 025°26'0 0.0
2015-Aug-23 20:32N 36°23' E 025°26'0 0.0
2015-Aug-23 19:33N 36°23' E 025°26'0 0.0
2015-Aug-23 18:32N 36°23' E 025°26'  
Track history (hours):
 
Tides and Currents Weather Stations Pressure Air Temp Water Temp Dewpoint Dewpoint Depression Visibility Wind Speed Wind Dir Waves Ship Positions

Antonios

Last reported at 2015-Sep-02 17:33 UTC. Time now 2015-Sep-03 17:16 UTC.
Position N 36°55' E 026°59'.

Length 57 m; draft 4.1 m.

Type: Tanker. MMSI: 239191300.

Date/timePositionNaut miles runAvg speedWind from/ knotsBaromVisibWave heightAir tempDewpointWater temp
2015-Sep-02 17:33N 36°55' E 026°59'1010.2
2015-Sep-02 16:34N 36°52' E 026°47'1110.3
2015-Sep-02 15:28N 36°49' E 026°33'1410.1
2015-Sep-02 14:05N 36°45' E 026°17'710.2
2015-Sep-02 13:23N 36°42' E 026°08'910.3
2015-Sep-02 12:28N 36°39' E 025°57'910.5
2015-Sep-02 11:33N 36°36' E 025°46'1110.6
2015-Sep-02 10:33N 36°33' E 025°33'1010.2
2015-Sep-02 09:33N 36°29' E 025°22'7 6.4
2015-Sep-02 08:32N 36°23' E 025°26'0 0.0
2015-Sep-02 07:33N 36°23' E 025°26'0 0.0
2015-Sep-02 06:33N 36°23' E 025°26'0 0.0
2015-Sep-02 05:32N 36°23' E 025°26'0 0.0
2015-Sep-02 04:33N 36°23' E 025°26'0 0.0
2015-Sep-02 03:32N 36°23' E 025°26'0 0.0
2015-Sep-02 02:33N 36°23' E 025°26'0 0.0
2015-Sep-02 01:32N 36°23' E 025°26'0 0.0
2015-Sep-02 00:33N 36°23' E 025°26'0 0.0
2015-Sep-01 23:33N 36°23' E 025°26'0 0.0
2015-Sep-01 22:32N 36°23' E 025°26'0 0.0
2015-Sep-01 21:32N 36°23' E 025°26'0 0.0
2015-Sep-01 20:32N 36°23' E 025°26'0 0.0
2015-Sep-01 19:33N 36°23' E 025°26'0 0.0
2015-Sep-01 18:33N 36°23' E 025°26'0 0.0
2015-Sep-01 17:33N 36°23' E 025°26'0 0.0
2015-Sep-01 16:33N 36°23' E 025°26'0 0.0
2015-Sep-01 15:33N 36°23' E 025°26'0 0.0
2015-Sep-01 14:33N 36°23' E 025°26'0 0.0
2015-Sep-01 13:33N 36°23' E 025°26'0 0.0
2015-Sep-01 12:33N 36°23' E 025°26'0 0.0
2015-Sep-01 11:32N 36°23' E 025°26'0 0.0
2015-Sep-01 10:32N 36°23' E 025°26'5 4.7
2015-Sep-01 09:33N 36°23' E 025°20'10 9.7
2015-Sep-01 08:33N 36°28' E 025°11'10 9.8
2015-Sep-01 07:33N 36°35' E 025°01'78 9.7
2015-Aug-31 23:33N 37°31' E 023°54'10 9.9
2015-Aug-31 22:33N 37°38' E 023°45'10 9.7
2015-Aug-31 21:33N 37°46' E 023°39'9 9.3
2015-Aug-31 20:33N 37°50' E 023°28'10 9.7
2015-Aug-31 19:33N 37°53' E 023°16'9 1.0
2015-Aug-31 11:08N 37°55' E 023°05'1 0.8
2015-Aug-31 09:26N 37°55' E 023°04'0 0.0
2015-Aug-31 08:22N 37°54' E 023°04'0 0.1
2015-Aug-31 07:30N 37°54' E 023°04'0 0.0
2015-Aug-31 06:30N 37°54' E 023°04'0 0.0
2015-Aug-31 05:33N 37°54' E 023°04'0 0.0
2015-Aug-31 04:32N 37°54' E 023°04'0 0.0
2015-Aug-31 03:33N 37°54' E 023°04'0 0.0
2015-Aug-31 02:27N 37°54' E 023°04'0 0.0
2015-Aug-31 01:32N 37°55' E 023°04'0 0.0
2015-Aug-31 00:33N 37°54' E 023°04'0 0.0
2015-Aug-30 23:33N 37°54' E 023°04'0 0.0
2015-Aug-30 22:31N 37°54' E 023°04'0 0.0
2015-Aug-30 21:33N 37°54' E 023°04'0 0.0
2015-Aug-30 20:32N 37°54' E 023°04'0 0.0
2015-Aug-30 19:22N 37°54' E 023°04'0 0.0
2015-Aug-30 18:27N 37°55' E 023°04'0 0.0
2015-Aug-30 17:16N 37°54' E 023°04'0 0.1
2015-Aug-30 16:26N 37°54' E 023°04'0 0.0
2015-Aug-30 15:23N 37°54' E 023°04'0 0.0
2015-Aug-30 14:32N 37°54' E 023°04'0 0.0
2015-Aug-30 13:33N 37°54' E 023°04'0 0.1
2015-Aug-30 12:15N 37°55' E 023°04'0 0.0
2015-Aug-30 09:32N 37°54' E 023°04'0 0.0
2015-Aug-30 08:23N 37°55' E 023°04'0 0.0
2015-Aug-30 07:31N 37°55' E 023°04'0 0.0
2015-Aug-30 06:27N 37°54' E 023°04'0 0.0
2015-Aug-30 05:11N 37°55' E 023°04'0 0.0
2015-Aug-30 03:30N 37°55' E 023°04'0 0.1
2015-Aug-30 02:23N 37°55' E 023°04'8 9.9
2015-Aug-30 01:33N 37°53' E 023°14'1010.2
2015-Aug-30 00:33N 37°51' E 023°27'10 9.8
2015-Aug-29 23:33N 37°50' E 023°39'10 9.6
2015-Aug-29 22:33N 37°41' E 023°45'10 9.6
2015-Aug-29 21:32N 37°33' E 023°53'78 8.6
2015-Aug-29 12:27N 36°36' E 024°59'8 9.1
2015-Aug-29 11:33N 36°31' E 025°07'9 8.9
2015-Aug-29 10:32N 36°26' E 025°16'8 8.2
2015-Aug-29 09:31N 36°23' E 025°26'0 0.0
2015-Aug-29 08:33N 36°23' E 025°26'0 0.0
2015-Aug-29 07:32N 36°23' E 025°26'0 0.0
2015-Aug-29 06:32N 36°23' E 025°26'0 0.0
2015-Aug-29 05:33N 36°23' E 025°26'0 0.0
2015-Aug-29 04:32N 36°23' E 025°26'0 0.0
2015-Aug-29 03:33N 36°23' E 025°26'0 0.0
2015-Aug-29 02:32N 36°23' E 025°26'0 0.0
2015-Aug-29 01:32N 36°23' E 025°26'0 0.0
2015-Aug-29 00:33N 36°23' E 025°26'0 0.0
2015-Aug-28 23:33N 36°23' E 025°26'4 4.3
2015-Aug-28 22:33N 36°20' E 025°23'9 9.0
2015-Aug-28 21:33N 36°22' E 025°34'1010.0
2015-Aug-28 20:32N 36°28' E 025°43'9 9.4
2015-Aug-28 19:34N 36°33' E 025°53'10 9.6
2015-Aug-28 18:33N 36°38' E 026°03'9 9.0
2015-Aug-28 17:33N 36°42' E 026°14'8 7.7
2015-Aug-28 16:33N 36°45' E 026°22'8 7.4
2015-Aug-28 15:32N 36°47' E 026°31'8 8.1
2015-Aug-28 14:33N 36°50' E 026°40'9 8.8
2015-Aug-28 13:33N 36°53' E 026°51'7 0.3
2015-Aug-27 18:33N 36°55' E 026°59'10 9.6
2015-Aug-27 17:31N 36°53' E 026°47'9 9.5
2015-Aug-27 16:33N 36°51' E 026°35'10 9.6
2015-Aug-27 15:32N 36°48' E 026°23'9 8.8
2015-Aug-27 14:33N 36°45' E 026°13'9 8.5
2015-Aug-27 13:33N 36°42' E 026°04'9 8.7
2015-Aug-27 12:32N 36°39' E 025°53'8 8.6
2015-Aug-27 11:33N 36°36' E 025°43'9 8.8
2015-Aug-27 10:33N 36°33' E 025°33'10 9.4
2015-Aug-27 09:30N 36°29' E 025°22'7 7.1
2015-Aug-27 08:33N 36°23' E 025°26'0 0.0
2015-Aug-27 07:32N 36°23' E 025°26'0 0.0
2015-Aug-27 06:33N 36°23' E 025°26'0 0.0
2015-Aug-27 05:32N 36°23' E 025°26'0 0.0
2015-Aug-27 04:33N 36°23' E 025°26'0 0.0
2015-Aug-27 03:33N 36°23' E 025°26'0 0.0
2015-Aug-27 02:33N 36°23' E 025°26'7 6.9
2015-Aug-27 01:33N 36°23' E 025°17'42 2.6
2015-Aug-26 09:27N 37°02' E 024°58'8 8.9
2015-Aug-26 08:33N 37°07' E 025°06'3 3.1
2015-Aug-26 07:33N 37°05' E 025°09'0 0.0
2015-Aug-26 06:33N 37°05' E 025°09'0 0.0
2015-Aug-26 05:33N 37°05' E 025°09'0 0.1
2015-Aug-26 04:31N 37°05' E 025°09'0 0.5
2015-Aug-26 03:33N 37°05' E 025°08'0 0.0
2015-Aug-26 02:31N 37°05' E 025°08'0 0.0
2015-Aug-26 01:32N 37°05' E 025°08'0 0.0
2015-Aug-26 00:33N 37°05' E 025°08'0 0.0
2015-Aug-25 23:27N 37°05' E 025°08'0 0.0
2015-Aug-25 22:32N 37°05' E 025°08'4 4.1
2015-Aug-25 21:33N 37°08' E 025°05'8 8.1
2015-Aug-25 20:33N 37°13' E 024°56'9 8.7
2015-Aug-25 19:33N 37°18' E 024°47'52 8.7
2015-Aug-25 13:33N 37°39' E 023°47'9 9.0
2015-Aug-25 12:33N 37°45' E 023°39'9 8.7
2015-Aug-25 11:33N 37°50' E 023°30'10 9.4
2015-Aug-25 10:31N 37°52' E 023°18'10 1.6
2015-Aug-25 04:11N 37°55' E 023°05'0 0.0
2015-Aug-25 03:24N 37°55' E 023°05'0 0.0
2015-Aug-24 23:06N 37°55' E 023°05'1 1.1
2015-Aug-24 22:33N 37°55' E 023°05'0 0.2
2015-Aug-24 21:34N 37°55' E 023°04'0 0.0
2015-Aug-24 20:29N 37°55' E 023°04'0 0.0
2015-Aug-24 19:33N 37°55' E 023°04'0 0.0
2015-Aug-24 18:33N 37°55' E 023°04'0 0.0
2015-Aug-24 17:30N 37°55' E 023°04'0 0.0
2015-Aug-24 16:32N 37°55' E 023°04'0 0.0
2015-Aug-24 15:32N 37°55' E 023°04'0 0.0
2015-Aug-24 14:32N 37°55' E 023°04'5 5.0
2015-Aug-24 13:33N 37°52' E 023°09'1010.3
2015-Aug-24 12:33N 37°43' E 023°16'10 9.6
2015-Aug-24 11:33N 37°38' E 023°27'10 9.9
2015-Aug-24 10:33N 37°35' E 023°39'89 8.8
2015-Aug-24 00:27N 36°35' E 025°01'10 9.7
2015-Aug-23 23:27N 36°31' E 025°12'8 8.9
2015-Aug-23 22:33N 36°28' E 025°21'6 5.9
2015-Aug-23 21:33N 36°23' E 025°26'0 0.0
2015-Aug-23 20:32N 36°23' E 025°26'0 0.0
2015-Aug-23 19:33N 36°23' E 025°26'0 0.0
2015-Aug-23 18:32N 36°23' E 025°26'  

Dump ship's entire track history